KADS/ADS METAR and TAF weather

Enter ICAO airport designator
Station Type Date Time Source
KADS METAR 2021/03/09 09:35 UTC NOAA

KADS 090935Z AUTO 17010G14KT 10SM CLR 14/10 A3024 RMK AO2 T01410104


Station Type Date Time Source
KADS Decoded METAR 2021/03/09 09:35 UTC NOAA

Dallas / Addison Airport, TX, United States (KADS) 32-58N 096-50W
Mar 09, 2021 - 04:35 AM EST / 2021.03.09 0935 UTC
Wind: from the S (170 degrees) at 12 MPH (10 KT) gusting to 16 MPH (14 KT):0
Visibility: 10 mile(s):0
Sky conditions: clear
Temperature: 57.4 F (14.1 C)
Dew Point: 50.7 F (10.4 C)
Relative Humidity: 78%
Pressure (altimeter): 30.24 in. Hg (1024 hPa)
ob: KADS 090935Z AUTO 17010G14KT 10SM CLR 14/10 A3024 RMK AO2 T01410104
cycle: 9

Station Type Date Time Source
KADS TAF UTC NOAA

Error!

Example: see airport list